createdAt,value
2022-10-24T00:01:50.762Z,28.45
2022-10-24T00:04:21.027Z,27.63
2022-10-24T00:06:53.455Z,30.75
2022-10-24T00:09:25.159Z,28.73
2022-10-24T00:11:55.031Z,27.98
2022-10-24T00:14:29.119Z,27.98
2022-10-24T00:17:01.972Z,27.35
2022-10-24T00:19:30.926Z,34.08
2022-10-24T00:21:59.926Z,35.33
2022-10-24T00:24:32.120Z,30.30
2022-10-24T00:27:01.731Z,31.95
2022-10-24T00:29:33.061Z,30.77
2022-10-24T00:32:11.696Z,27.20
2022-10-24T00:34:41.550Z,30.52
2022-10-24T00:37:13.269Z,29.50
2022-10-24T00:39:45.532Z,29.48
2022-10-24T00:42:21.394Z,66.05
2022-10-24T00:45:06.844Z,72.53
2022-10-24T00:47:39.135Z,79.53
2022-10-24T00:50:15.076Z,32.22
2022-10-24T00:52:49.929Z,29.10
2022-10-24T00:55:20.194Z,29.25
2022-10-24T00:57:55.164Z,31.25
2022-10-24T01:00:44.722Z,30.67
2022-10-24T01:03:14.876Z,33.75
2022-10-24T01:06:12.016Z,35.60
2022-10-24T01:09:05.427Z,33.05
2022-10-24T01:12:10.748Z,32.38
2022-10-24T01:15:09.355Z,33.83
2022-10-24T01:18:08.394Z,35.40
2022-10-24T01:20:53.502Z,34.22
2022-10-24T01:23:49.225Z,35.58
2022-10-24T01:26:48.164Z,37.03
2022-10-24T01:29:35.052Z,33.33
2022-10-24T01:32:22.166Z,36.35
2022-10-24T01:38:14.700Z,37.42
2022-10-24T01:41:07.909Z,34.45
2022-10-24T01:44:15.326Z,34.83
2022-10-24T01:47:16.276Z,38.35
2022-10-24T01:49:53.821Z,34.67
2022-10-24T01:52:28.442Z,37.80
2022-10-24T01:55:05.350Z,38.35
2022-10-24T02:00:08.681Z,42.88
2022-10-24T02:02:48.191Z,37.47
2022-10-24T02:05:27.972Z,38.40
2022-10-24T02:08:10.112Z,41.47
2022-10-24T02:10:47.986Z,41.88
2022-10-24T02:13:56.287Z,40.38
2022-10-24T02:16:33.265Z,36.00
2022-10-24T02:19:05.093Z,39.10
2022-10-24T02:21:43.288Z,45.22
2022-10-24T02:24:33.492Z,46.97
2022-10-24T02:27:23.325Z,41.60
2022-10-24T02:30:04.094Z,45.53
2022-10-24T02:32:46.967Z,51.42
2022-10-24T02:35:17.968Z,52.10
2022-10-24T02:38:00.818Z,46.13
2022-10-24T02:40:40.693Z,50.80
2022-10-24T02:43:12.068Z,58.25
2022-10-24T02:45:47.621Z,50.33
2022-10-24T02:48:20.482Z,50.83
2022-10-24T02:50:59.208Z,54.28
2022-10-24T02:53:37.194Z,54.38
2022-10-24T02:56:12.017Z,49.72
2022-10-24T02:58:44.944Z,53.10
2022-10-24T03:01:17.243Z,44.55
2022-10-24T03:03:47.455Z,44.60
2022-10-24T03:06:18.641Z,47.78
2022-10-24T03:08:50.121Z,47.20
2022-10-24T03:11:18.390Z,44.13
2022-10-24T03:13:47.676Z,45.42
2022-10-24T03:16:22.495Z,46.00
2022-10-24T03:18:54.396Z,47.65
2022-10-24T03:21:24.011Z,46.97
2022-10-24T03:23:54.612Z,63.05
2022-10-24T03:26:24.684Z,47.80
2022-10-24T03:28:55.684Z,52.72
2022-10-24T03:31:29.144Z,45.45
2022-10-24T03:34:09.344Z,54.15
2022-10-24T03:36:39.752Z,52.53
2022-10-24T03:39:18.952Z,53.20
2022-10-24T03:41:55.121Z,71.20
2022-10-24T03:44:24.490Z,51.72
2022-10-24T03:47:12.373Z,60.78
2022-10-24T03:49:44.101Z,52.95
2022-10-24T03:52:14.138Z,47.65
2022-10-24T03:54:42.438Z,49.33
2022-10-24T03:57:13.203Z,45.13
2022-10-24T03:59:44.171Z,45.30
2022-10-24T04:02:14.184Z,44.20
2022-10-24T04:04:45.360Z,43.78
2022-10-24T04:07:16.367Z,40.33
2022-10-24T04:09:51.968Z,58.40
2022-10-24T04:12:22.260Z,46.15
2022-10-24T04:15:00.963Z,46.92
2022-10-24T04:17:34.259Z,39.20
2022-10-24T04:20:04.019Z,45.38
2022-10-24T04:22:34.820Z,41.17
2022-10-24T04:25:04.717Z,37.80
2022-10-24T04:27:37.060Z,36.70
2022-10-24T04:30:16.400Z,35.60
2022-10-24T04:32:47.279Z,40.15
2022-10-24T04:35:18.392Z,43.05
2022-10-24T04:37:49.270Z,62.50
2022-10-24T04:40:21.451Z,59.92
2022-10-24T04:42:54.141Z,38.58
2022-10-24T04:45:25.337Z,51.92
2022-10-24T04:47:55.941Z,71.38
2022-10-24T04:50:34.502Z,62.22
2022-10-24T04:53:07.657Z,49.78
2022-10-24T04:58:11.425Z,44.00
2022-10-24T05:00:48.583Z,35.60
2022-10-24T05:03:19.552Z,46.92
2022-10-24T05:05:51.028Z,35.85
2022-10-24T05:08:23.569Z,34.00
2022-10-24T05:10:59.006Z,33.97
2022-10-24T05:13:48.495Z,44.97
2022-10-24T05:16:19.379Z,33.97
2022-10-24T05:18:49.075Z,48.78
2022-10-24T05:21:18.063Z,38.55
2022-10-24T05:23:54.357Z,69.95
2022-10-24T05:26:28.009Z,39.63
2022-10-24T05:29:00.259Z,46.63
2022-10-24T05:31:44.912Z,38.85
2022-10-24T05:34:16.573Z,35.92
2022-10-24T05:36:50.082Z,35.47
2022-10-24T05:39:29.574Z,38.58
2022-10-24T05:42:06.390Z,34.15
2022-10-24T05:44:35.173Z,31.98
2022-10-24T05:47:07.060Z,35.90
2022-10-24T05:49:38.556Z,33.13
2022-10-24T05:52:08.758Z,37.67
2022-10-24T05:54:55.163Z,41.95
2022-10-24T05:57:31.669Z,48.92
2022-10-24T06:05:21.708Z,33.55
2022-10-24T06:07:50.030Z,36.47
2022-10-24T06:10:19.241Z,34.30
2022-10-24T06:12:51.437Z,36.20
2022-10-24T06:15:22.906Z,33.95
2022-10-24T06:17:54.472Z,35.25
2022-10-24T06:20:22.910Z,34.88
2022-10-24T06:22:54.060Z,39.92
2022-10-24T06:25:24.521Z,34.22
2022-10-24T06:27:58.191Z,42.50
2022-10-24T06:30:34.845Z,44.65
2022-10-24T06:33:07.236Z,37.20
2022-10-24T06:35:41.462Z,33.30
2022-10-24T06:38:11.387Z,34.28
2022-10-24T06:43:50.249Z,38.38
2022-10-24T06:46:25.430Z,38.47
2022-10-24T06:48:55.831Z,31.38
2022-10-24T06:51:27.488Z,30.13
2022-10-24T06:54:00.201Z,32.03
2022-10-24T06:56:35.170Z,30.33
2022-10-24T06:59:11.282Z,33.70
2022-10-24T07:01:42.414Z,33.42
2022-10-24T07:04:12.530Z,34.22
2022-10-24T07:09:44.251Z,41.58
2022-10-24T07:12:22.460Z,35.22
2022-10-24T07:14:59.627Z,36.25
2022-10-24T07:17:50.462Z,35.85
2022-10-24T07:20:35.390Z,36.58
2022-10-24T07:23:11.618Z,35.03
2022-10-24T07:25:43.979Z,37.40
2022-10-24T07:28:16.807Z,32.10
2022-10-24T07:30:46.907Z,32.53
2022-10-24T07:33:20.737Z,37.80
2022-10-24T07:35:58.902Z,47.13
2022-10-24T07:38:30.381Z,35.88
2022-10-24T07:41:10.963Z,36.03
2022-10-24T07:43:53.309Z,37.53
2022-10-24T07:46:32.852Z,40.47
2022-10-24T07:49:04.021Z,37.42
2022-10-24T07:51:32.930Z,37.08
2022-10-24T07:54:05.031Z,44.33
2022-10-24T07:56:35.030Z,41.22
2022-10-24T07:59:09.249Z,37.33
2022-10-24T08:01:41.462Z,41.13
2022-10-24T08:04:13.881Z,53.05
2022-10-24T08:06:45.757Z,50.55
2022-10-24T08:09:15.328Z,40.67
2022-10-24T08:11:57.239Z,44.20
2022-10-24T08:14:46.909Z,45.08
2022-10-24T08:17:30.763Z,44.53
2022-10-24T08:20:04.257Z,40.00
2022-10-24T08:22:57.687Z,34.88
2022-10-24T08:25:26.028Z,33.20
2022-10-24T08:27:59.696Z,33.15
2022-10-24T08:30:41.288Z,35.90
2022-10-24T08:33:10.734Z,34.58
2022-10-24T08:35:39.820Z,34.15
2022-10-24T08:38:15.661Z,39.20
2022-10-24T08:40:53.591Z,38.15
2022-10-24T08:43:32.923Z,36.13
2022-10-24T08:46:22.516Z,37.97
2022-10-24T08:49:36.452Z,41.30
2022-10-24T08:52:48.543Z,41.35
2022-10-24T08:55:48.769Z,39.90
2022-10-24T08:58:35.773Z,34.92
2022-10-24T09:01:21.157Z,34.42
2022-10-24T09:03:56.638Z,45.38
2022-10-24T09:06:28.259Z,42.28
2022-10-24T09:09:23.839Z,40.53
2022-10-24T09:12:20.505Z,34.33
2022-10-24T09:14:59.863Z,45.90
2022-10-24T09:17:50.562Z,34.80
2022-10-24T09:20:38.240Z,33.90
2022-10-24T09:23:09.127Z,46.33
2022-10-24T09:25:42.991Z,32.90
2022-10-24T09:28:13.571Z,37.63
2022-10-24T09:30:43.564Z,34.33
2022-10-24T09:33:27.844Z,32.13
2022-10-24T09:36:06.240Z,32.25
2022-10-24T09:38:41.917Z,33.33
2022-10-24T09:41:36.813Z,34.67
2022-10-24T09:44:34.681Z,32.60
2022-10-24T09:47:12.633Z,32.17
2022-10-24T09:49:46.336Z,35.45
2022-10-24T09:52:21.236Z,35.33
2022-10-24T09:55:21.644Z,30.92
2022-10-24T09:57:56.420Z,52.90
2022-10-24T10:00:37.057Z,43.03
2022-10-24T10:03:23.428Z,43.85
2022-10-24T10:06:05.612Z,33.25
2022-10-24T10:08:36.470Z,33.53
2022-10-24T10:11:13.023Z,33.38
2022-10-24T10:13:56.255Z,30.80
2022-10-24T10:16:39.356Z,31.85
2022-10-24T10:19:18.225Z,28.88
2022-10-24T10:21:58.509Z,32.55
2022-10-24T10:24:59.810Z,28.15
2022-10-24T10:27:32.639Z,32.30
2022-10-24T10:30:14.596Z,54.97
2022-10-24T10:33:26.160Z,27.88
2022-10-24T10:36:19.916Z,29.08
2022-10-24T10:39:12.429Z,26.27
2022-10-24T10:42:23.341Z,27.13
2022-10-24T10:44:54.231Z,45.60
2022-10-24T10:48:08.236Z,37.47
2022-10-24T10:50:52.287Z,30.98
2022-10-24T10:53:45.804Z,29.40
2022-10-24T10:56:30.855Z,28.58
2022-10-24T10:59:29.463Z,30.60
2022-10-24T11:02:20.892Z,27.00
2022-10-24T11:05:34.660Z,28.73
2022-10-24T11:08:23.554Z,27.60
2022-10-24T11:11:13.102Z,25.77
2022-10-24T11:14:31.419Z,23.70
2022-10-24T11:17:29.081Z,28.13
2022-10-24T11:20:21.648Z,28.38
2022-10-24T11:25:59.165Z,24.85
2022-10-24T11:28:45.044Z,23.83
2022-10-24T11:31:39.287Z,30.85
2022-10-24T11:34:37.599Z,23.85
2022-10-24T11:37:29.041Z,26.08
2022-10-24T11:40:12.740Z,23.75
2022-10-24T11:43:20.214Z,27.15
2022-10-24T11:46:02.893Z,24.83
2022-10-24T11:48:41.671Z,27.17
2022-10-24T11:51:40.129Z,22.38
2022-10-24T11:54:26.395Z,22.65
2022-10-24T11:57:08.262Z,24.25
2022-10-24T11:59:42.438Z,20.85
2022-10-24T12:02:26.453Z,19.90
2022-10-24T12:05:17.982Z,20.63
2022-10-24T12:08:13.497Z,19.05
2022-10-24T12:11:14.616Z,37.80
2022-10-24T12:14:03.768Z,28.92
2022-10-24T12:17:09.576Z,25.50
2022-10-24T12:19:44.108Z,23.17
2022-10-24T12:22:27.734Z,23.17
2022-10-24T12:25:11.101Z,21.17
2022-10-24T12:27:46.093Z,27.20
2022-10-24T12:30:19.273Z,30.10
2022-10-24T12:33:07.983Z,28.08
2022-10-24T12:39:04.274Z,21.17
2022-10-24T12:42:03.485Z,21.17
2022-10-24T12:51:41.707Z,20.98
2022-10-24T12:54:50.569Z,22.85
2022-10-24T12:57:47.356Z,22.23
2022-10-24T13:00:35.631Z,26.00
2022-10-24T13:10:35.656Z,20.45
2022-10-24T13:13:37.180Z,22.00
2022-10-24T13:20:16.904Z,22.92
2022-10-24T13:23:22.648Z,26.58
2022-10-24T13:25:58.739Z,29.73
2022-10-24T13:28:34.687Z,34.15
2022-10-24T13:31:22.983Z,32.33
2022-10-24T13:34:38.392Z,23.27
2022-10-24T13:38:07.983Z,33.55
2022-10-24T13:41:19.756Z,38.42
2022-10-24T13:47:19.377Z,31.73
2022-10-24T13:50:07.081Z,27.80
2022-10-24T13:53:05.228Z,38.25
2022-10-24T13:55:50.441Z,34.95
2022-10-24T13:58:27.348Z,38.08
2022-10-24T14:01:11.596Z,27.95
2022-10-24T14:03:47.529Z,24.55
2022-10-24T14:06:44.310Z,28.73
2022-10-24T14:09:28.297Z,29.00
2022-10-24T14:12:04.187Z,27.08
2022-10-24T14:14:41.060Z,25.60
2022-10-24T14:17:33.291Z,26.10
2022-10-24T14:20:39.092Z,28.05
2022-10-24T14:23:41.655Z,79.45
2022-10-24T14:26:22.384Z,157.07
2022-10-24T14:28:58.834Z,83.43
2022-10-24T14:31:35.063Z,43.70
2022-10-24T14:34:09.919Z,29.27
2022-10-24T14:36:39.936Z,36.13
2022-10-24T14:39:19.353Z,28.17
2022-10-24T14:41:51.980Z,25.33
2022-10-24T14:44:22.670Z,41.20
2022-10-24T14:47:28.505Z,38.38
2022-10-24T14:50:30.692Z,32.47
2022-10-24T14:53:41.532Z,34.35
2022-10-24T14:56:28.531Z,27.25
2022-10-24T14:59:02.761Z,29.60
2022-10-24T15:01:37.110Z,30.80
2022-10-24T15:04:09.016Z,53.20
2022-10-24T15:06:57.671Z,38.72
2022-10-24T15:09:29.142Z,36.70
2022-10-24T15:12:13.518Z,40.03
2022-10-24T15:14:49.390Z,52.85
2022-10-24T15:17:36.558Z,47.15
2022-10-24T15:20:08.257Z,39.22
2022-10-24T15:22:45.576Z,43.55
2022-10-24T15:25:26.033Z,51.63
2022-10-24T15:28:00.645Z,56.03
2022-10-24T15:30:32.104Z,55.42
2022-10-24T15:33:06.383Z,42.10
2022-10-24T15:35:41.572Z,63.53
2022-10-24T15:38:18.458Z,98.60
2022-10-24T15:40:48.604Z,133.82
2022-10-24T15:43:25.904Z,164.27
2022-10-24T15:45:57.983Z,158.25
2022-10-24T15:48:26.882Z,158.85
2022-10-24T15:51:01.440Z,127.70
2022-10-24T15:53:35.943Z,152.00
2022-10-24T15:56:04.094Z,100.45
2022-10-24T15:58:33.504Z,76.72
2022-10-24T16:01:02.654Z,65.25
2022-10-24T16:03:35.072Z,86.03
2022-10-24T16:06:04.772Z,191.93
2022-10-24T16:08:35.487Z,135.57
2022-10-24T16:11:06.296Z,105.15
2022-10-24T16:13:41.172Z,126.70
2022-10-24T16:16:11.983Z,128.00
2022-10-24T16:18:40.852Z,122.22
2022-10-24T16:21:21.436Z,129.55
2022-10-24T16:23:52.719Z,87.18
2022-10-24T16:26:22.170Z,80.75
2022-10-24T16:28:51.472Z,70.13
2022-10-24T16:31:23.609Z,80.63
2022-10-24T16:34:03.633Z,106.60
2022-10-24T16:36:32.912Z,75.45
2022-10-24T16:39:01.841Z,52.03
2022-10-24T16:41:46.172Z,70.30
2022-10-24T16:44:14.968Z,35.30
2022-10-24T16:46:45.867Z,40.13
2022-10-24T16:49:17.907Z,49.75
2022-10-24T16:51:46.101Z,52.03
2022-10-24T16:54:14.405Z,46.35
2022-10-24T16:56:53.643Z,39.03
2022-10-24T16:59:29.467Z,37.88
2022-10-24T17:01:59.029Z,35.30
2022-10-24T17:04:34.890Z,31.58
2022-10-24T17:07:14.848Z,37.45
2022-10-24T17:09:49.894Z,37.70
2022-10-24T17:15:09.340Z,36.85
2022-10-24T17:17:40.425Z,55.03
2022-10-24T17:20:37.693Z,47.20
2022-10-24T17:23:09.453Z,57.38
2022-10-24T17:25:41.493Z,52.35
2022-10-24T17:28:16.347Z,69.63
2022-10-24T17:30:49.563Z,90.30
2022-10-24T17:33:21.350Z,103.47
2022-10-24T17:36:44.956Z,115.07
2022-10-24T17:40:15.024Z,41.45
2022-10-24T17:46:21.625Z,61.15
2022-10-24T17:49:28.115Z,72.82
2022-10-24T17:51:59.507Z,69.82
2022-10-24T17:54:28.070Z,55.88
2022-10-24T17:57:00.523Z,42.35
2022-10-24T17:59:30.973Z,39.08
2022-10-24T18:02:09.595Z,39.17
2022-10-24T18:05:03.604Z,38.65
2022-10-24T18:07:58.151Z,65.97
2022-10-24T18:10:40.089Z,45.92
2022-10-24T18:13:19.819Z,37.30
2022-10-24T18:15:53.176Z,39.70
2022-10-24T18:18:26.902Z,39.75
2022-10-24T18:21:14.107Z,49.22
2022-10-24T18:23:53.318Z,63.70
2022-10-24T18:26:25.373Z,80.53
2022-10-24T18:29:05.024Z,90.45
2022-10-24T18:31:40.844Z,75.80
2022-10-24T18:34:09.659Z,63.53
2022-10-24T18:36:39.617Z,40.30
2022-10-24T18:39:26.341Z,56.55
2022-10-24T18:42:44.171Z,42.55
2022-10-24T18:45:31.991Z,34.45
2022-10-24T18:48:36.434Z,32.88
2022-10-24T18:51:14.530Z,25.50
2022-10-24T18:53:49.149Z,28.63
2022-10-24T18:56:24.887Z,29.08
2022-10-24T18:58:59.610Z,30.33
2022-10-24T19:02:01.493Z,36.83
2022-10-24T19:04:46.183Z,30.20
2022-10-24T19:07:22.042Z,61.92
2022-10-24T19:09:56.403Z,33.33
2022-10-24T19:12:29.556Z,36.08
2022-10-24T19:15:05.973Z,25.67
2022-10-24T19:17:43.073Z,33.97
2022-10-24T19:20:26.453Z,39.35
2022-10-24T19:23:11.791Z,53.88
2022-10-24T19:25:47.830Z,69.43
2022-10-24T19:28:20.358Z,41.47
2022-10-24T19:30:51.974Z,34.22
2022-10-24T19:33:28.708Z,49.78
2022-10-24T19:35:57.989Z,63.13
2022-10-24T19:41:25.370Z,84.60
2022-10-24T19:43:55.359Z,70.47
2022-10-24T19:46:28.372Z,44.58
2022-10-24T19:49:01.135Z,41.58
2022-10-24T19:52:02.908Z,41.88
2022-10-24T19:54:38.659Z,59.35
2022-10-24T20:00:10.797Z,87.15
2022-10-24T20:03:07.934Z,41.22
2022-10-24T20:05:42.378Z,44.83
2022-10-24T20:08:14.398Z,32.72
2022-10-24T20:10:53.547Z,30.00
2022-10-24T20:13:24.789Z,25.65
2022-10-24T20:16:07.215Z,24.90
2022-10-24T20:18:42.554Z,26.90
2022-10-24T20:21:39.874Z,34.67
2022-10-24T20:24:09.066Z,38.97
2022-10-24T20:26:39.222Z,38.42
2022-10-24T20:29:08.461Z,37.90
2022-10-24T20:31:43.881Z,43.17
2022-10-24T20:34:12.336Z,28.08
2022-10-24T20:36:48.271Z,42.03
2022-10-24T20:39:21.057Z,51.30
2022-10-24T20:41:53.980Z,49.65
2022-10-24T20:44:22.941Z,44.08
2022-10-24T20:47:00.791Z,38.45
2022-10-24T20:49:32.258Z,33.35
2022-10-24T20:52:01.521Z,52.88
2022-10-24T20:54:30.514Z,32.85
2022-10-24T20:56:59.352Z,28.13
2022-10-24T20:59:30.415Z,22.13
2022-10-24T21:01:58.933Z,62.65
2022-10-24T21:04:28.450Z,23.65
2022-10-24T21:06:56.830Z,24.58
2022-10-24T21:09:25.725Z,35.10
2022-10-24T21:11:56.374Z,28.75
2022-10-24T21:14:24.613Z,38.38
2022-10-24T21:16:53.200Z,30.75
2022-10-24T21:19:24.599Z,26.23
2022-10-24T21:21:55.219Z,35.97
2022-10-24T21:24:26.574Z,30.05
2022-10-24T21:26:56.300Z,34.20
2022-10-24T21:29:33.750Z,34.58
2022-10-24T21:32:10.685Z,32.67
2022-10-24T21:34:42.146Z,29.95
2022-10-24T21:37:10.710Z,49.38
2022-10-24T21:39:39.895Z,36.42
2022-10-24T21:42:08.916Z,27.00
2022-10-24T21:44:37.048Z,22.90
2022-10-24T21:47:06.828Z,31.20
2022-10-24T21:49:36.475Z,23.77
2022-10-24T21:52:05.176Z,22.83
2022-10-24T21:54:33.534Z,25.90
2022-10-24T21:57:02.439Z,24.23
2022-10-24T21:59:39.126Z,29.88
2022-10-24T22:02:11.487Z,32.05
2022-10-24T22:04:42.353Z,24.55
2022-10-24T22:07:19.377Z,27.88
2022-10-24T22:09:53.699Z,25.05
2022-10-24T22:12:30.274Z,27.33
2022-10-24T22:15:08.157Z,25.95
2022-10-24T22:17:37.030Z,25.70
2022-10-24T22:20:11.528Z,25.75
2022-10-24T22:22:39.908Z,24.25
2022-10-24T22:25:09.495Z,42.08
2022-10-24T22:27:38.204Z,32.33
2022-10-24T22:30:15.788Z,46.00
2022-10-24T22:33:08.398Z,31.63
2022-10-24T22:35:36.836Z,27.80
2022-10-24T22:38:06.923Z,21.52
2022-10-24T22:40:48.079Z,21.50
2022-10-24T22:43:17.019Z,18.50
2022-10-24T22:46:18.238Z,20.30
2022-10-24T22:49:06.306Z,22.23
2022-10-24T22:51:37.981Z,21.20
2022-10-24T22:54:19.868Z,18.90
2022-10-24T22:56:53.325Z,21.35
2022-10-24T22:59:26.745Z,21.23
2022-10-24T23:02:40.136Z,14.65
2022-10-24T23:05:34.743Z,15.80
2022-10-24T23:08:19.931Z,16.73
2022-10-24T23:11:07.856Z,15.48
2022-10-24T23:13:41.864Z,17.42
2022-10-24T23:16:39.019Z,21.30
2022-10-24T23:19:25.747Z,19.25
2022-10-24T23:22:06.950Z,20.92
2022-10-24T23:24:36.856Z,19.73
2022-10-24T23:27:35.825Z,19.73
2022-10-24T23:30:16.046Z,16.73
2022-10-24T23:32:45.620Z,20.70
2022-10-24T23:35:16.236Z,16.45
2022-10-24T23:37:47.168Z,17.52
2022-10-24T23:40:29.058Z,12.93
2022-10-24T23:43:08.140Z,15.38
2022-10-24T23:45:44.818Z,19.10
2022-10-24T23:48:57.422Z,12.40
2022-10-24T23:51:49.125Z,17.15
2022-10-24T23:54:28.998Z,13.35
2022-10-24T23:56:57.401Z,15.95
2022-10-24T23:59:27.180Z,13.02
